Pagrindinis puslapis
METAR-TAF:

METAR-TAF

Oro uostai :

Marianhamina, Suomija

platuma: 60-07N, ilguma: 019-54E, Aukštis: 6 m

Dabartinis oras

Ataskaita buvo paskelbta 7 minutes, ne 10:50 UTC
Vėjas 8 kt iš Pietų/Pietvakarių
Temperatūra 15°C
Drėgmė 77%
Slėgis 998 hPa
Matomumas 10 km arba daugiau
nėra debesų žemiau 1500 m ir nėra kamuolinių lietaus debesų

METAR: EFMA 051050Z AUTO 20008KT CAVOK 15/11 Q0998

Laikas: 13:57 (10:57 UTC)

Prognozė

Ataskaita buvo paskelbta 2 valandos ir 26 minutes, ne 08:31 UTC
Prognozė galioja nuo 05 metu 09 UTC su 05 metu 18 UTC
Vėjas 11 kt iš Pietų
Matomumas 10 km arba daugiau
nėra debesų žemiau 1500 m ir nėra kamuolinių lietaus debesų
Tapsmas
nuo 05 metu 15 UTC su 05 metu 17 UTC
Vėjas 10 kt iš Pietryčių

TAF: EFMA 050831Z 0509/0518 19011KT CAVOK BECMG 0515/0517 13010KT

Orai ataskaitas ir orų prognozės (METAR, TAF).

turimą stotys yra geltonos ir raudonos taškus žemėlapyje.

Perkelti pele per norėdami pamatyti stoties vardą.

Tada spustelėkite, norėdami matyti oro stebėjimo ir prognozės.

Norėdami pakeisti žemėlapį: spustelėkite ant žalios mygtukų su juodo kryžiaus žemyn,; žalią mygtuką su brūkšneliu, jei norite nutolinti; arba žalių rodyklių gretimoms žemėlapius.


METAR-TAF: